sensor_id;sensor_type;location;lat;lon;timestamp;pressure;altitude;pressure_sealevel;temperature;humidity
46045;BME280;31781;54.094;13.428;2023-03-21T00:01:28;101663.09;;;8.58;78.24
46045;BME280;31781;54.094;13.428;2023-03-21T00:03:32;101663.94;;;8.58;78.42
46045;BME280;31781;54.094;13.428;2023-03-21T00:05:38;101662.09;;;8.59;78.05
46045;BME280;31781;54.094;13.428;2023-03-21T00:07:41;101656.81;;;8.57;78.70
46045;BME280;31781;54.094;13.428;2023-03-21T00:09:43;101657.69;;;8.58;78.49
46045;BME280;31781;54.094;13.428;2023-03-21T00:11:45;101658.53;;;8.58;78.23
46045;BME280;31781;54.094;13.428;2023-03-21T00:13:49;101659.38;;;8.59;78.24
46045;BME280;31781;54.094;13.428;2023-03-21T00:15:51;101657.69;;;8.58;78.56
46045;BME280;31781;54.094;13.428;2023-03-21T00:18:14;101660.38;;;8.58;78.00
46045;BME280;31781;54.094;13.428;2023-03-21T00:20:17;101663.09;;;8.58;78.45
46045;BME280;31781;54.094;13.428;2023-03-21T00:22:20;101656.00;;;8.57;78.38
46045;BME280;31781;54.094;13.428;2023-03-21T00:24:22;101655.16;;;8.56;78.32
46045;BME280;31781;54.094;13.428;2023-03-21T00:26:23;101648.88;;;8.56;78.86
46045;BME280;31781;54.094;13.428;2023-03-21T00:28:26;101653.28;;;8.57;78.87
46045;BME280;31781;54.094;13.428;2023-03-21T00:30:28;101646.16;;;8.56;78.64
46045;BME280;31781;54.094;13.428;2023-03-21T00:32:30;101644.31;;;8.56;78.30
46045;BME280;31781;54.094;13.428;2023-03-21T00:34:35;101642.44;;;8.57;78.17
46045;BME280;31781;54.094;13.428;2023-03-21T00:36:50;101647.88;;;8.57;78.79
46045;BME280;31781;54.094;13.428;2023-03-21T00:38:52;101645.31;;;8.55;78.45
46045;BME280;31781;54.094;13.428;2023-03-21T00:40:54;101645.31;;;8.55;78.43
46045;BME280;31781;54.094;13.428;2023-03-21T00:43:00;101639.88;;;8.55;78.24
46045;BME280;31781;54.094;13.428;2023-03-21T00:45:02;101636.16;;;8.56;78.33
46045;BME280;31781;54.094;13.428;2023-03-21T00:47:05;101627.19;;;8.56;78.83
46045;BME280;31781;54.094;13.428;2023-03-21T00:49:09;101632.59;;;8.56;78.60
46045;BME280;31781;54.094;13.428;2023-03-21T00:51:13;101636.16;;;8.56;78.41
46045;BME280;31781;54.094;13.428;2023-03-21T00:53:17;101644.47;;;8.55;78.38
46045;BME280;31781;54.094;13.428;2023-03-21T00:55:19;101632.59;;;8.56;78.62
46045;BME280;31781;54.094;13.428;2023-03-21T00:57:21;101640.75;;;8.56;78.43
46045;BME280;31781;54.094;13.428;2023-03-21T00:59:39;101636.16;;;8.56;78.59
46045;BME280;31781;54.094;13.428;2023-03-21T01:01:41;101636.16;;;8.56;78.44
46045;BME280;31781;54.094;13.428;2023-03-21T01:03:43;101644.31;;;8.56;78.58
46045;BME280;31781;54.094;13.428;2023-03-21T01:05:47;101642.44;;;8.57;78.44
46045;BME280;31781;54.094;13.428;2023-03-21T01:07:51;101638.88;;;8.56;78.69
46045;BME280;31781;54.094;13.428;2023-03-21T01:09:54;101638.69;;;8.58;78.47
46045;BME280;31781;54.094;13.428;2023-03-21T01:11:56;101632.41;;;8.57;78.83
46045;BME280;31781;54.094;13.428;2023-03-21T01:13:57;101626.16;;;8.57;78.70
46045;BME280;31781;54.094;13.428;2023-03-21T01:16:19;101624.28;;;8.57;78.55
46045;BME280;31781;54.094;13.428;2023-03-21T01:18:23;101628.03;;;8.56;78.99
46045;BME280;31781;54.094;13.428;2023-03-21T01:20:25;101631.75;;;8.55;78.59
46045;BME280;31781;54.094;13.428;2023-03-21T01:22:28;101634.47;;;8.55;78.75
46045;BME280;31781;54.094;13.428;2023-03-21T01:24:29;101633.63;;;8.55;78.47
46045;BME280;31781;54.094;13.428;2023-03-21T01:26:39;101631.75;;;8.55;78.59
46045;BME280;31781;54.094;13.428;2023-03-21T01:28:42;101630.06;;;8.54;78.64
46045;BME280;31781;54.094;13.428;2023-03-21T01:30:44;101625.66;;;8.53;78.77
46045;BME280;31781;54.094;13.428;2023-03-21T01:32:46;101628.38;;;8.53;78.59
46045;BME280;31781;54.094;13.428;2023-03-21T01:34:48;101624.81;;;8.53;78.76
46045;BME280;31781;54.094;13.428;2023-03-21T01:36:50;101630.25;;;8.53;78.13
46045;BME280;31781;54.094;13.428;2023-03-21T01:38:52;101630.25;;;8.53;78.40
46045;BME280;31781;54.094;13.428;2023-03-21T01:40:54;101630.25;;;8.53;78.92
46045;BME280;31781;54.094;13.428;2023-03-21T01:42:57;101630.25;;;8.53;78.54
46045;BME280;31781;54.094;13.428;2023-03-21T01:45:03;101636.53;;;8.53;78.23
46045;BME280;31781;54.094;13.428;2023-03-21T01:47:06;101634.63;;;8.54;78.28
46045;BME280;31781;54.094;13.428;2023-03-21T01:49:15;101629.19;;;8.54;78.33
46045;BME280;31781;54.094;13.428;2023-03-21T01:51:21;101628.38;;;8.53;77.97
46045;BME280;31781;54.094;13.428;2023-03-21T01:53:25;101633.63;;;8.55;78.61
46045;BME280;31781;54.094;13.428;2023-03-21T01:55:29;101625.66;;;8.53;78.29
46045;BME280;31781;54.094;13.428;2023-03-21T01:57:37;101631.75;;;8.55;78.01
46045;BME280;31781;54.094;13.428;2023-03-21T01:59:53;101635.31;;;8.56;78.81
46045;BME280;31781;54.094;13.428;2023-03-21T02:01:59;101635.31;;;8.56;78.53
46045;BME280;31781;54.094;13.428;2023-03-21T02:04:03;101631.59;;;8.57;78.38
46045;BME280;31781;54.094;13.428;2023-03-21T02:06:09;101634.13;;;8.58;78.54
46045;BME280;31781;54.094;13.428;2023-03-21T02:08:12;101635.81;;;8.59;78.38
46045;BME280;31781;54.094;13.428;2023-03-21T02:10:15;101629.38;;;8.60;78.42
46045;BME280;31781;54.094;13.428;2023-03-21T02:12:17;101631.03;;;8.61;77.85
46045;BME280;31781;54.094;13.428;2023-03-21T02:14:19;101627.31;;;8.62;77.69
46045;BME280;31781;54.094;13.428;2023-03-21T02:16:40;101629.88;;;8.64;77.05
46045;BME280;31781;54.094;13.428;2023-03-21T02:18:52;101626.97;;;8.65;77.71
46045;BME280;31781;54.094;13.428;2023-03-21T02:21:19;101633.94;;;8.68;76.83
46045;BME280;31781;54.094;13.428;2023-03-21T02:26:36;101635.59;;;8.69;76.67
46045;BME280;31781;54.094;13.428;2023-03-21T02:28:46;101624.25;;;8.65;77.95
46045;BME280;31781;54.094;13.428;2023-03-21T02:31:06;101630.16;;;8.69;76.97
46045;BME280;31781;54.094;13.428;2023-03-21T02:33:40;101631.03;;;8.69;77.07
46045;BME280;31781;54.094;13.428;2023-03-21T02:35:54;101628.31;;;8.69;77.08
46045;BME280;31781;54.094;13.428;2023-03-21T02:38:18;101625.59;;;8.69;77.95
46045;BME280;31781;54.094;13.428;2023-03-21T02:40:32;101628.31;;;8.69;77.39
46045;BME280;31781;54.094;13.428;2023-03-21T02:42:43;101622.88;;;8.69;77.66
46045;BME280;31781;54.094;13.428;2023-03-21T02:45:04;101623.72;;;8.70;77.55
46045;BME280;31781;54.094;13.428;2023-03-21T02:47:14;101630.00;;;8.70;77.56
46045;BME280;31781;54.094;13.428;2023-03-21T02:49:21;101624.59;;;8.70;77.49
46045;BME280;31781;54.094;13.428;2023-03-21T02:51:26;101620.84;;;8.71;77.76
46045;BME280;31781;54.094;13.428;2023-03-21T02:53:34;101620.00;;;8.71;77.71
46045;BME280;31781;54.094;13.428;2023-03-21T02:55:39;101620.66;;;8.73;77.69
46045;BME280;31781;54.094;13.428;2023-03-21T02:57:43;101627.78;;;8.74;77.65
46045;BME280;31781;54.094;13.428;2023-03-21T02:59:49;101623.22;;;8.74;77.90
46045;BME280;31781;54.094;13.428;2023-03-21T03:01:59;101624.91;;;8.75;77.73
46045;BME280;31781;54.094;13.428;2023-03-21T03:04:00;101615.94;;;8.75;77.94
46045;BME280;31781;54.094;13.428;2023-03-21T03:06:07;101619.50;;;8.75;77.34
46045;BME280;31781;54.094;13.428;2023-03-21T03:08:19;101618.44;;;8.76;77.31
46045;BME280;31781;54.094;13.428;2023-03-21T03:10:59;101621.84;;;8.78;76.80
46045;BME280;31781;54.094;13.428;2023-03-21T03:13:14;101618.44;;;8.76;77.14
46045;BME280;31781;54.094;13.428;2023-03-21T03:15:24;101616.78;;;8.75;77.51
46045;BME280;31781;54.094;13.428;2023-03-21T03:17:40;101614.88;;;8.76;76.82
46045;BME280;31781;54.094;13.428;2023-03-21T03:19:56;101615.72;;;8.76;76.38
46045;BME280;31781;54.094;13.428;2023-03-21T03:22:18;101614.88;;;8.76;nan
46045;BME280;31781;54.094;13.428;2023-03-21T03:24:25;101615.94;;;8.75;77.36
46045;BME280;31781;54.094;13.428;2023-03-21T03:26:34;101616.59;;;8.77;77.61
46045;BME280;31781;54.094;13.428;2023-03-21T03:28:44;101612.00;;;8.77;76.78
46045;BME280;31781;54.094;13.428;2023-03-21T03:30:50;101614.72;;;8.77;78.10
46045;BME280;31781;54.094;13.428;2023-03-21T03:33:09;101612.66;;;8.79;77.54
46045;BME280;31781;54.094;13.428;2023-03-21T03:35:16;101615.38;;;8.79;77.36
46045;BME280;31781;54.094;13.428;2023-03-21T03:37:21;101611.66;;;8.80;77.71
46045;BME280;31781;54.094;13.428;2023-03-21T03:39:32;101611.66;;;8.80;77.29
46045;BME280;31781;54.094;13.428;2023-03-21T03:41:41;101616.91;;;8.82;77.20
46045;BME280;31781;54.094;13.428;2023-03-21T03:44:04;101613.19;;;8.83;77.74
46045;BME280;31781;54.094;13.428;2023-03-21T03:46:12;101610.47;;;8.83;76.94
46045;BME280;31781;54.094;13.428;2023-03-21T03:48:20;101616.56;;;8.85;77.13
46045;BME280;31781;54.094;13.428;2023-03-21T03:50:28;101610.28;;;8.85;77.21
46045;BME280;31781;54.094;13.428;2023-03-21T03:52:34;101617.56;;;8.84;77.17
46045;BME280;31781;54.094;13.428;2023-03-21T03:54:48;101618.41;;;8.85;77.36
46045;BME280;31781;54.094;13.428;2023-03-21T03:56:53;101618.41;;;8.85;77.01
46045;BME280;31781;54.094;13.428;2023-03-21T03:58:56;101618.41;;;8.85;77.37
46045;BME280;31781;54.094;13.428;2023-03-21T04:00:58;101613.84;;;8.85;77.28
46045;BME280;31781;54.094;13.428;2023-03-21T04:03:01;101618.25;;;8.86;77.48
46045;BME280;31781;54.094;13.428;2023-03-21T04:05:04;101620.97;;;8.86;77.18
46045;BME280;31781;54.094;13.428;2023-03-21T04:07:06;101621.81;;;8.87;77.25
46045;BME280;31781;54.094;13.428;2023-03-21T04:09:08;101615.34;;;8.88;77.83
46045;BME280;31781;54.094;13.428;2023-03-21T04:11:23;101615.34;;;8.88;77.18
46045;BME280;31781;54.094;13.428;2023-03-21T04:13:26;101614.50;;;8.87;nan
46045;BME280;31781;54.094;13.428;2023-03-21T04:15:31;101617.03;;;8.89;77.74
46045;BME280;31781;54.094;13.428;2023-03-21T04:17:34;101624.16;;;8.90;77.24
46045;BME280;31781;54.094;13.428;2023-03-21T04:19:35;101607.88;;;8.90;77.44
46045;BME280;31781;54.094;13.428;2023-03-21T04:21:37;101606.84;;;8.91;77.59
46045;BME280;31781;54.094;13.428;2023-03-21T04:23:40;101613.97;;;8.92;77.59
46045;BME280;31781;54.094;13.428;2023-03-21T04:25:44;101612.09;;;8.92;77.31
46045;BME280;31781;54.094;13.428;2023-03-21T04:27:56;101610.25;;;8.93;77.71
46045;BME280;31781;54.094;13.428;2023-03-21T04:30:00;101620.09;;;8.94;77.06
46045;BME280;31781;54.094;13.428;2023-03-21T04:32:04;101616.50;;;8.93;77.82
46045;BME280;31781;54.094;13.428;2023-03-21T04:34:06;101619.22;;;8.93;77.69
46045;BME280;31781;54.094;13.428;2023-03-21T04:36:09;101621.09;;;8.93;77.50
46045;BME280;31781;54.094;13.428;2023-03-21T04:38:11;101620.09;;;8.94;77.19
46045;BME280;31781;54.094;13.428;2023-03-21T04:40:13;101614.66;;;8.94;77.26
46045;BME280;31781;54.094;13.428;2023-03-21T04:42:17;101617.38;;;8.94;77.64
46045;BME280;31781;54.094;13.428;2023-03-21T04:44:19;101620.94;;;8.94;77.82
46045;BME280;31781;54.094;13.428;2023-03-21T04:46:22;101612.78;;;8.94;77.67
46045;BME280;31781;54.094;13.428;2023-03-21T04:48:24;101617.38;;;8.94;78.00
46045;BME280;31781;54.094;13.428;2023-03-21T04:50:26;101616.31;;;8.95;77.44
46045;BME280;31781;54.094;13.428;2023-03-21T04:52:28;101616.31;;;8.95;78.37
46045;BME280;31781;54.094;13.428;2023-03-21T04:54:30;101614.66;;;8.94;77.75
46045;BME280;31781;54.094;13.428;2023-03-21T04:56:32;101611.94;;;8.94;77.78
46045;BME280;31781;54.094;13.428;2023-03-21T04:58:38;101611.94;;;8.94;77.97
46045;BME280;31781;54.094;13.428;2023-03-21T05:00:39;101610.25;;;8.93;78.47
46045;BME280;31781;54.094;13.428;2023-03-21T05:02:43;101610.25;;;8.93;78.24
46045;BME280;31781;54.094;13.428;2023-03-21T05:04:45;101616.69;;;8.92;77.93
46045;BME280;31781;54.094;13.428;2023-03-21T05:06:47;101612.09;;;8.92;78.59
46045;BME280;31781;54.094;13.428;2023-03-21T05:08:48;101609.38;;;8.92;78.64
46045;BME280;31781;54.094;13.428;2023-03-21T05:10:50;101612.09;;;8.92;78.57
46045;BME280;31781;54.094;13.428;2023-03-21T05:12:52;101610.25;;;8.93;78.52
46045;BME280;31781;54.094;13.428;2023-03-21T05:14:53;101615.66;;;8.93;78.23
46045;BME280;31781;54.094;13.428;2023-03-21T05:16:55;101611.25;;;8.92;78.75
46045;BME280;31781;54.094;13.428;2023-03-21T05:19:00;101615.66;;;8.93;78.54
46045;BME280;31781;54.094;13.428;2023-03-21T05:21:01;101618.22;;;8.94;78.40
46045;BME280;31781;54.094;13.428;2023-03-21T05:23:04;101610.25;;;8.93;78.25
46045;BME280;31781;54.094;13.428;2023-03-21T05:25:07;101620.09;;;8.94;78.53
46045;BME280;31781;54.094;13.428;2023-03-21T05:27:09;101619.22;;;8.93;78.39
46045;BME280;31781;54.094;13.428;2023-03-21T05:29:11;101619.22;;;8.93;78.55
46045;BME280;31781;54.094;13.428;2023-03-21T05:31:12;101616.50;;;8.93;78.61
46045;BME280;31781;54.094;13.428;2023-03-21T05:33:16;101620.94;;;8.94;78.54
46045;BME280;31781;54.094;13.428;2023-03-21T05:35:20;101617.38;;;8.94;78.86
46045;BME280;31781;54.094;13.428;2023-03-21T05:37:21;101621.94;;;8.93;78.33
46045;BME280;31781;54.094;13.428;2023-03-21T05:39:23;101620.09;;;8.94;78.94
46045;BME280;31781;54.094;13.428;2023-03-21T05:41:25;101620.94;;;8.94;78.52
46045;BME280;31781;54.094;13.428;2023-03-21T05:43:27;101618.22;;;8.94;78.59
46045;BME280;31781;54.094;13.428;2023-03-21T05:45:29;101621.75;;;8.95;78.25
46045;BME280;31781;54.094;13.428;2023-03-21T05:47:31;101619.88;;;8.95;78.65
46045;BME280;31781;54.094;13.428;2023-03-21T05:49:33;101622.59;;;8.95;78.41
46045;BME280;31781;54.094;13.428;2023-03-21T05:51:36;101619.88;;;8.95;78.61
46045;BME280;31781;54.094;13.428;2023-03-21T05:53:38;101627.19;;;8.95;78.69
46045;BME280;31781;54.094;13.428;2023-03-21T05:55:40;101624.66;;;8.93;78.38
46045;BME280;31781;54.094;13.428;2023-03-21T05:57:41;101622.78;;;8.94;78.57
46045;BME280;31781;54.094;13.428;2023-03-21T05:59:44;101627.38;;;8.93;78.03
46045;BME280;31781;54.094;13.428;2023-03-21T06:01:46;101629.25;;;8.93;78.18
46045;BME280;31781;54.094;13.428;2023-03-21T06:03:48;101624.66;;;8.93;78.24
46045;BME280;31781;54.094;13.428;2023-03-21T06:05:50;101623.81;;;8.93;78.58
46045;BME280;31781;54.094;13.428;2023-03-21T06:07:53;101628.22;;;8.94;78.28
46045;BME280;31781;54.094;13.428;2023-03-21T06:09:55;101622.78;;;8.94;78.36
46045;BME280;31781;54.094;13.428;2023-03-21T06:12:01;101622.97;;;8.92;78.62
46045;BME280;31781;54.094;13.428;2023-03-21T06:14:03;101621.09;;;8.93;77.94
46045;BME280;31781;54.094;13.428;2023-03-21T06:16:05;101622.78;;;8.94;78.00
46045;BME280;31781;54.094;13.428;2023-03-21T06:18:07;101619.03;;;8.95;77.90
46045;BME280;31781;54.094;13.428;2023-03-21T06:20:10;101617.38;;;8.94;78.44
46045;BME280;31781;54.094;13.428;2023-03-21T06:22:12;101615.50;;;8.94;78.14
46045;BME280;31781;54.094;13.428;2023-03-21T06:24:16;101619.88;;;8.95;78.56
46045;BME280;31781;54.094;13.428;2023-03-21T06:26:18;101617.00;;;8.97;78.11
46045;BME280;31781;54.094;13.428;2023-03-21T06:28:20;101620.56;;;8.97;78.49
46045;BME280;31781;54.094;13.428;2023-03-21T06:30:22;101616.81;;;8.98;78.25
46045;BME280;31781;54.094;13.428;2023-03-21T06:32:24;101622.06;;;9.00;78.24
46045;BME280;31781;54.094;13.428;2023-03-21T06:34:26;101623.78;;;9.01;78.11
46045;BME280;31781;54.094;13.428;2023-03-21T06:36:29;101620.00;;;9.02;77.86
46045;BME280;31781;54.094;13.428;2023-03-21T06:38:31;101625.28;;;9.03;78.28
46045;BME280;31781;54.094;13.428;2023-03-21T06:40:34;101620.53;;;9.05;78.45
46045;BME280;31781;54.094;13.428;2023-03-21T06:42:37;101625.78;;;9.07;77.98
46045;BME280;31781;54.094;13.428;2023-03-21T06:44:39;101627.47;;;9.08;77.64
46045;BME280;31781;54.094;13.428;2023-03-21T06:46:41;101629.16;;;9.09;77.57
46045;BME280;31781;54.094;13.428;2023-03-21T06:48:43;101618.97;;;9.11;77.37
46045;BME280;31781;54.094;13.428;2023-03-21T06:50:47;101632.19;;;9.14;77.50
46045;BME280;31781;54.094;13.428;2023-03-21T06:52:49;101629.28;;;9.15;77.44
46045;BME280;31781;54.094;13.428;2023-03-21T06:54:51;101629.09;;;9.17;77.91
46045;BME280;31781;54.094;13.428;2023-03-21T06:56:54;101630.63;;;9.19;77.60
46045;BME280;31781;54.094;13.428;2023-03-21T06:58:55;101630.28;;;9.22;77.67
46045;BME280;31781;54.094;13.428;2023-03-21T07:00:57;101626.53;;;9.23;77.32
46045;BME280;31781;54.094;13.428;2023-03-21T07:02:59;101629.06;;;9.25;77.25
46045;BME280;31781;54.094;13.428;2023-03-21T07:05:03;101628.88;;;9.26;77.62
46045;BME280;31781;54.094;13.428;2023-03-21T07:07:05;101625.81;;;9.29;77.50
46045;BME280;31781;54.094;13.428;2023-03-21T07:09:07;101631.91;;;9.32;77.59
46045;BME280;31781;54.094;13.428;2023-03-21T07:11:08;101632.56;;;9.34;77.24
46045;BME280;31781;54.094;13.428;2023-03-21T07:13:12;101633.22;;;9.36;77.64
46045;BME280;31781;54.094;13.428;2023-03-21T07:15:14;101631.19;;;9.38;77.67
46045;BME280;31781;54.094;13.428;2023-03-21T07:17:16;101623.69;;;9.40;77.69
46045;BME280;31781;54.094;13.428;2023-03-21T07:19:17;101624.19;;;9.43;77.44
46045;BME280;31781;54.094;13.428;2023-03-21T07:21:19;101625.88;;;9.44;76.92
46045;BME280;31781;54.094;13.428;2023-03-21T07:23:22;101625.72;;;9.46;77.15
46045;BME280;31781;54.094;13.428;2023-03-21T07:25:24;101628.91;;;9.49;77.38
46045;BME280;31781;54.094;13.428;2023-03-21T07:27:26;101624.97;;;9.52;77.22
46045;BME280;31781;54.094;13.428;2023-03-21T07:29:30;101626.47;;;9.54;77.30
46045;BME280;31781;54.094;13.428;2023-03-21T07:31:31;101621.72;;;9.56;77.40
46045;BME280;31781;54.094;13.428;2023-03-21T07:33:33;101625.78;;;9.60;77.79
46045;BME280;31781;54.094;13.428;2023-03-21T07:35:35;101628.97;;;9.64;78.08
46045;BME280;31781;54.094;13.428;2023-03-21T07:37:38;101628.59;;;9.67;77.31
46045;BME280;31781;54.094;13.428;2023-03-21T07:39:40;101625.53;;;9.70;77.17
46045;BME280;31781;54.094;13.428;2023-03-21T07:41:41;101622.44;;;9.73;76.69
46045;BME280;31781;54.094;13.428;2023-03-21T07:43:43;101617.69;;;9.75;77.09
46045;BME280;31781;54.094;13.428;2023-03-21T07:45:46;101619.19;;;9.77;76.48
46045;BME280;31781;54.094;13.428;2023-03-21T07:47:48;101622.38;;;9.81;76.53
46045;BME280;31781;54.094;13.428;2023-03-21T07:49:50;101620.31;;;9.83;76.78
46045;BME280;31781;54.094;13.428;2023-03-21T07:51:51;101620.78;;;9.87;76.87
46045;BME280;31781;54.094;13.428;2023-03-21T07:53:53;101625.03;;;9.89;76.08
46045;BME280;31781;54.094;13.428;2023-03-21T07:55:55;101619.22;;;9.92;76.44
46045;BME280;31781;54.094;13.428;2023-03-21T07:57:58;101621.56;;;9.95;76.08
46045;BME280;31781;54.094;13.428;2023-03-21T08:00:00;101622.03;;;9.99;76.51
46045;BME280;31781;54.094;13.428;2023-03-21T08:02:03;101629.00;;;10.01;76.51
46045;BME280;31781;54.094;13.428;2023-03-21T08:04:08;101627.78;;;10.04;76.43
46045;BME280;31781;54.094;13.428;2023-03-21T08:06:10;101617.38;;;10.07;76.04
46045;BME280;31781;54.094;13.428;2023-03-21T08:08:12;101626.00;;;10.11;75.75
46045;BME280;31781;54.094;13.428;2023-03-21T08:10:16;101628.34;;;10.14;75.95
46045;BME280;31781;54.094;13.428;2023-03-21T08:12:18;101628.88;;;10.17;76.48
46045;BME280;31781;54.094;13.428;2023-03-21T08:14:20;101627.63;;;10.20;75.70
46045;BME280;31781;54.094;13.428;2023-03-21T08:16:22;101627.28;;;10.23;75.46
46045;BME280;31781;54.094;13.428;2023-03-21T08:18:26;101627.78;;;10.27;75.36
46045;BME280;31781;54.094;13.428;2023-03-21T08:20:27;101628.25;;;10.30;75.37
46045;BME280;31781;54.094;13.428;2023-03-21T08:22:33;101631.59;;;10.32;74.88
46045;BME280;31781;54.094;13.428;2023-03-21T08:24:35;101630.41;;;10.35;74.93
46045;BME280;31781;54.094;13.428;2023-03-21T08:26:37;101630.88;;;10.38;74.81
46045;BME280;31781;54.094;13.428;2023-03-21T08:28:39;101628.81;;;10.40;74.64
46045;BME280;31781;54.094;13.428;2023-03-21T08:30:41;101633.03;;;10.43;74.97
46045;BME280;31781;54.094;13.428;2023-03-21T08:32:43;101641.84;;;10.45;74.47
46045;BME280;31781;54.094;13.428;2023-03-21T08:34:46;101636.88;;;10.48;74.91
46045;BME280;31781;54.094;13.428;2023-03-21T08:36:48;101631.91;;;10.52;74.70
46045;BME280;31781;54.094;13.428;2023-03-21T08:38:51;101638.84;;;10.54;74.35
46045;BME280;31781;54.094;13.428;2023-03-21T08:40:52;101636.59;;;10.58;74.48
46045;BME280;31781;54.094;13.428;2023-03-21T08:42:54;101634.34;;;10.61;73.89
46045;BME280;31781;54.094;13.428;2023-03-21T08:44:56;101640.25;;;10.65;73.82
46045;BME280;31781;54.094;13.428;2023-03-21T08:47:00;101640.72;;;10.68;73.87
46045;BME280;31781;54.094;13.428;2023-03-21T08:49:01;101639.53;;;10.71;73.07
46045;BME280;31781;54.094;13.428;2023-03-21T08:51:05;101637.25;;;10.74;73.42
46045;BME280;31781;54.094;13.428;2023-03-21T08:53:07;101639.41;;;10.79;73.70
46045;BME280;31781;54.094;13.428;2023-03-21T08:55:12;101630.88;;;10.82;73.79
46045;BME280;31781;54.094;13.428;2023-03-21T08:57:14;101639.31;;;10.87;73.49
46045;BME280;31781;54.094;13.428;2023-03-21T08:59:16;101636.00;;;10.92;73.86
46045;BME280;31781;54.094;13.428;2023-03-21T09:01:18;101638.34;;;10.95;72.61
46045;BME280;31781;54.094;13.428;2023-03-21T09:03:20;101635.06;;;10.99;72.66
46045;BME280;31781;54.094;13.428;2023-03-21T09:05:23;101640.13;;;11.02;72.82
46045;BME280;31781;54.094;13.428;2023-03-21T09:07:27;101642.28;;;11.07;72.99
46045;BME280;31781;54.094;13.428;2023-03-21T09:09:32;101643.59;;;11.11;73.14
46045;BME280;31781;54.094;13.428;2023-03-21T09:11:34;101645.75;;;11.15;72.21
46045;BME280;31781;54.094;13.428;2023-03-21T09:13:36;101646.22;;;11.19;71.25
46045;BME280;31781;54.094;13.428;2023-03-21T09:15:37;101641.41;;;11.21;70.90
46045;BME280;31781;54.094;13.428;2023-03-21T09:17:40;101642.72;;;11.25;71.26
46045;BME280;31781;54.094;13.428;2023-03-21T09:19:42;101640.47;;;11.29;70.61
46045;BME280;31781;54.094;13.428;2023-03-21T09:21:43;101640.28;;;11.30;69.46
46045;BME280;31781;54.094;13.428;2023-03-21T09:23:50;101635.28;;;11.34;69.91
46045;BME280;31781;54.094;13.428;2023-03-21T09:25:52;101633.03;;;11.37;70.14
46045;BME280;31781;54.094;13.428;2023-03-21T09:27:56;101632.63;;;11.40;70.28
46045;BME280;31781;54.094;13.428;2023-03-21T09:29:57;101628.47;;;11.44;70.66
46045;BME280;31781;54.094;13.428;2023-03-21T09:31:59;101628.09;;;11.47;69.52
46045;BME280;31781;54.094;13.428;2023-03-21T09:34:01;101626.50;;;11.53;69.71
46045;BME280;31781;54.094;13.428;2023-03-21T09:36:03;101627.75;;;11.57;69.07
46045;BME280;31781;54.094;13.428;2023-03-21T09:38:06;101619.41;;;11.58;67.83
46045;BME280;31781;54.094;13.428;2023-03-21T09:40:14;101621.56;;;11.63;68.99
46045;BME280;31781;54.094;13.428;2023-03-21T09:42:30;101617.19;;;11.68;69.48
46045;BME280;31781;54.094;13.428;2023-03-21T09:44:43;101618.84;;;11.84;68.84
46045;BME280;31781;54.094;13.428;2023-03-21T09:46:54;101610.56;;;11.99;69.76
46045;BME280;31781;54.094;13.428;2023-03-21T09:49:03;101611.97;;;12.16;70.11
46045;BME280;31781;54.094;13.428;2023-03-21T09:51:11;101616.25;;;12.25;69.81
46045;BME280;31781;54.094;13.428;2023-03-21T09:53:22;101603.75;;;12.37;69.39
46045;BME280;31781;54.094;13.428;2023-03-21T09:55:29;101604.91;;;12.56;68.03
46045;BME280;31781;54.094;13.428;2023-03-21T09:57:34;101604.28;;;12.60;67.67
46045;BME280;31781;54.094;13.428;2023-03-21T09:59:39;101606.00;;;12.68;66.00
46045;BME280;31781;54.094;13.428;2023-03-21T10:01:43;101595.94;;;12.75;66.87
46045;BME280;31781;54.094;13.428;2023-03-21T10:03:47;101598.34;;;12.85;66.53
46045;BME280;31781;54.094;13.428;2023-03-21T10:05:50;101596.06;;;12.95;67.06
46045;BME280;31781;54.094;13.428;2023-03-21T10:07:55;101595.28;;;13.07;65.29
46045;BME280;31781;54.094;13.428;2023-03-21T10:10:01;101600.78;;;13.14;65.46
46045;BME280;31781;54.094;13.428;2023-03-21T10:12:11;101597.88;;;13.22;64.97
46045;BME280;31781;54.094;13.428;2023-03-21T10:14:18;101597.03;;;13.28;64.88
46045;BME280;31781;54.094;13.428;2023-03-21T10:16:27;101598.31;;;13.32;66.25
46045;BME280;31781;54.094;13.428;2023-03-21T10:18:30;101601.47;;;13.36;64.71
46045;BME280;31781;54.094;13.428;2023-03-21T10:20:36;101597.47;;;13.38;63.36
46045;BME280;31781;54.094;13.428;2023-03-21T10:22:39;101598.56;;;13.44;64.89
46045;BME280;31781;54.094;13.428;2023-03-21T10:24:41;101597.53;;;13.45;63.56
46045;BME280;31781;54.094;13.428;2023-03-21T10:26:46;101599.00;;;13.47;64.12
46045;BME280;31781;54.094;13.428;2023-03-21T10:28:50;101593.28;;;13.49;64.20
46045;BME280;31781;54.094;13.428;2023-03-21T10:30:56;101599.41;;;13.51;63.71
46045;BME280;31781;54.094;13.428;2023-03-21T10:33:02;101593.94;;;13.51;64.27
46045;BME280;31781;54.094;13.428;2023-03-21T10:35:11;101593.09;;;13.50;64.40
46045;BME280;31781;54.094;13.428;2023-03-21T10:37:14;101593.28;;;13.49;64.06
46045;BME280;31781;54.094;13.428;2023-03-21T10:39:22;101589.94;;;13.47;63.94
46045;BME280;31781;54.094;13.428;2023-03-21T10:41:25;101588.91;;;13.48;64.24
46045;BME280;31781;54.094;13.428;2023-03-21T10:43:33;101595.22;;;13.48;63.99
46045;BME280;31781;54.094;13.428;2023-03-21T10:45:37;101588.47;;;13.51;64.26
46045;BME280;31781;54.094;13.428;2023-03-21T10:47:40;101586.38;;;13.53;64.03
46045;BME280;31781;54.094;13.428;2023-03-21T10:49:46;101580.69;;;13.54;63.09
46045;BME280;31781;54.094;13.428;2023-03-21T10:52:18;101581.13;;;13.58;64.49
46045;BME280;31781;54.094;13.428;2023-03-21T10:54:21;101575.66;;;13.58;63.33